NCAR-RAP Real-Time Weather Data

Output produced by METARs form (08 May 2021  00:28 UTC)
found at http://weather.rap.ucar.edu/surface/
 
KGGG 072353Z 12008KT 10SM CLR 26/13 A3002 RMK AO2 SLP161 T02610128 10278 20239 56029
KGGG 072253Z 11008KT 10SM CLR 27/12 A3004 RMK AO2 SLP167 T02670122
KGGG 072153Z 12006KT 10SM CLR 27/12 A3007 RMK AO2 SLP177 T02720122
KGGG 072053Z 15009KT 10SM CLR 27/11 A3010 RMK AO2 SLP189 T02670111 56029
KGGG 071953Z AUTO 12008KT 10SM CLR 26/10 A3012 RMK AO2 SLP197 T02610100
KGGG 071853Z 10007KT 10SM CLR 26/11 A3015 RMK AO2 SLP205 T02560106
KGGG 071753Z 13008KT 10SM CLR 24/10 A3019 RMK AO2 SLP220 T02440100 10244 20128 58016
KGGG 071653Z 13007KT 10SM CLR 23/09 A3022 RMK AO2 SLP228 T02280089
KGGG 071553Z 12006KT 10SM CLR 21/09 A3024 RMK AO2 SLP235 T02110089
KGGG 071453Z 09007KT 10SM CLR 19/08 A3024 RMK AO2 SLP236 T01940078 51013
KGGG 071353Z 09008KT 10SM CLR 18/08 A3023 RMK AO2 SLP232 T01780078
KGGG 071253Z 10007KT 10SM CLR 16/10 A3022 RMK AO2 SLP231 T01560100
KGGG 071153Z 07003KT 10SM CLR 13/12 A3020 RMK AO2 SLP222 T01280117 10156 20128 53014
KGGG 071053Z 07003KT 10SM CLR 13/11 A3017 RMK AO2 SLP213 T01280111
KGGG 070953Z 07003KT 10SM CLR 13/12 A3016 RMK AO2 SLP209 T01330117